createdAt,value
2018-01-04T00:00:08.074Z,9.9
2018-01-04T00:15:04.793Z,9.7
2018-01-04T00:30:05.177Z,9.7
2018-01-04T00:45:05.039Z,9.6
2018-01-04T01:00:05.220Z,9.5
2018-01-04T01:15:05.169Z,9.5
2018-01-04T01:30:04.941Z,9.5
2018-01-04T01:45:04.746Z,9.2
2018-01-04T02:00:05.129Z,9.2
2018-01-04T02:15:04.613Z,9.4
2018-01-04T02:30:05.625Z,9.2
2018-01-04T02:45:06.088Z,8.9
2018-01-04T03:00:08.169Z,8.8
2018-01-04T03:15:06.557Z,8.6
2018-01-04T03:30:05.727Z,8.6
2018-01-04T03:45:05.968Z,8.8
2018-01-04T04:00:04.704Z,8.9
2018-01-04T04:15:07.719Z,8.8
2018-01-04T04:30:04.573Z,8.8
2018-01-04T04:45:05.301Z,8.8
2018-01-04T05:00:07.996Z,8.7
2018-01-04T05:15:04.706Z,8.7
2018-01-04T05:30:07.877Z,8.9
2018-01-04T05:45:04.334Z,9.3
2018-01-04T06:00:05.338Z,9.5
2018-01-04T06:15:20.070Z,9.3
2018-01-04T06:30:12.342Z,9.2
2018-01-04T06:45:07.331Z,9.4
2018-01-04T07:00:06.233Z,9.6
2018-01-04T07:15:04.804Z,9.2
2018-01-04T07:30:05.201Z,9.2
2018-01-04T07:45:05.714Z,9
2018-01-04T08:00:08.160Z,8.9
2018-01-04T08:15:10.739Z,8.9
2018-01-04T08:30:04.483Z,9
2018-01-04T08:45:04.888Z,8.9
2018-01-04T09:00:04.348Z,9
2018-01-04T09:15:04.259Z,9
2018-01-04T09:30:04.924Z,9.1
2018-01-04T09:45:04.861Z,9.4
2018-01-04T10:00:04.289Z,9.7
2018-01-04T10:15:04.181Z,9.7
2018-01-04T10:30:05.961Z,10
2018-01-04T10:45:04.451Z,10.1
2018-01-04T11:00:04.497Z,10.3
2018-01-04T11:15:05.040Z,10.9
2018-01-04T11:30:07.958Z,11.5
2018-01-04T11:45:04.499Z,11.9
2018-01-04T12:00:05.006Z,12.2
2018-01-04T12:15:04.952Z,12.4
2018-01-04T12:30:05.585Z,12.6
2018-01-04T12:45:05.820Z,13
2018-01-04T13:00:04.732Z,13.3
2018-01-04T13:15:08.288Z,13.3
2018-01-04T13:30:04.867Z,13.6
2018-01-04T13:45:04.261Z,13.7
2018-01-04T14:00:08.381Z,13.9
2018-01-04T14:15:04.925Z,13.8
2018-01-04T14:30:05.631Z,14
2018-01-04T14:45:06.040Z,14
2018-01-04T15:00:05.488Z,14.2
2018-01-04T15:15:04.883Z,14.3
2018-01-04T15:30:04.619Z,14.5
2018-01-04T15:45:04.981Z,14.5
2018-01-04T16:00:04.878Z,14.5
2018-01-04T16:15:04.305Z,14.5
2018-01-04T16:30:05.000Z,14.5
2018-01-04T16:45:04.867Z,14.5
2018-01-04T17:00:04.274Z,14.6
2018-01-04T17:15:05.715Z,14.7
2018-01-04T17:30:04.811Z,14.7
2018-01-04T17:45:05.178Z,14.9
2018-01-04T18:00:04.547Z,14.9
2018-01-04T18:15:04.581Z,14.8
2018-01-04T18:30:05.176Z,15
2018-01-04T18:45:04.619Z,15.2
2018-01-04T19:00:05.024Z,15.5
2018-01-04T19:15:04.388Z,15.6
2018-01-04T19:30:04.434Z,15.7
2018-01-04T19:45:04.896Z,15.7
2018-01-04T20:00:04.364Z,15.4
2018-01-04T20:15:04.744Z,15.3
2018-01-04T20:30:04.450Z,15.3
2018-01-04T20:45:04.857Z,15.2
2018-01-04T21:00:07.875Z,15.1
2018-01-04T21:15:04.287Z,15
2018-01-04T21:30:05.261Z,15.1
2018-01-04T21:45:04.741Z,14.9
2018-01-04T22:00:05.189Z,14.8
2018-01-04T22:15:04.602Z,15
2018-01-04T22:30:04.371Z,14.9
2018-01-04T22:45:05.093Z,14.9
2018-01-04T23:00:05.808Z,14.9
2018-01-04T23:15:04.712Z,14.9
2018-01-04T23:30:04.539Z,14.8
2018-01-04T23:45:04.514Z,14.9
